createdAt,value
2022-11-14T00:00:24.134Z,11.73
2022-11-14T00:03:12.231Z,11.30
2022-11-14T00:05:53.602Z,10.77
2022-11-14T00:08:35.550Z,11.40
2022-11-14T00:11:17.008Z,11.82
2022-11-14T00:13:58.637Z,11.60
2022-11-14T00:16:40.093Z,11.30
2022-11-14T00:19:21.641Z,11.35
2022-11-14T00:22:03.365Z,11.52
2022-11-14T00:24:44.886Z,12.15
2022-11-14T00:27:25.362Z,11.88
2022-11-14T00:30:07.698Z,10.93
2022-11-14T00:32:48.921Z,10.48
2022-11-14T00:35:29.355Z,12.57
2022-11-14T00:38:10.514Z,11.93
2022-11-14T00:40:52.187Z,11.65
2022-11-14T00:43:33.653Z,11.70
2022-11-14T00:46:16.603Z,11.57
2022-11-14T00:48:58.900Z,10.82
2022-11-14T00:51:40.318Z,11.05
2022-11-14T00:54:21.947Z,10.93
2022-11-14T00:57:03.509Z,10.52
2022-11-14T00:59:44.648Z,10.82
2022-11-14T01:02:26.026Z,10.57
2022-11-14T01:05:07.437Z,10.95
2022-11-14T01:07:49.727Z,10.40
2022-11-14T01:10:30.980Z,10.93
2022-11-14T01:13:13.415Z,10.02
2022-11-14T01:15:55.908Z,10.15
2022-11-14T01:18:37.896Z,10.60
2022-11-14T01:21:19.287Z,10.25
2022-11-14T01:24:00.808Z,11.65
2022-11-14T01:26:43.272Z,10.27
2022-11-14T01:29:25.015Z,10.07
2022-11-14T01:32:06.439Z,10.35
2022-11-14T01:34:48.288Z,10.38
2022-11-14T01:37:29.748Z,10.43
2022-11-14T01:40:12.092Z,9.50
2022-11-14T01:43:20.119Z,9.57
2022-11-14T01:46:03.819Z,10.30
2022-11-14T01:48:55.551Z,10.30
2022-11-14T01:51:57.929Z,10.10
2022-11-14T01:54:42.430Z,9.85
2022-11-14T01:57:27.748Z,10.10
2022-11-14T02:00:10.969Z,10.07
2022-11-14T02:02:53.853Z,9.63
2022-11-14T02:05:35.093Z,10.23
2022-11-14T02:08:15.504Z,9.50
2022-11-14T02:10:56.968Z,10.18
2022-11-14T02:13:38.634Z,11.38
2022-11-14T02:16:20.168Z,10.48
2022-11-14T02:19:01.821Z,10.25
2022-11-14T02:21:43.128Z,10.57
2022-11-14T02:24:23.600Z,10.20
2022-11-14T02:27:06.025Z,9.52
2022-11-14T02:29:46.682Z,11.32
2022-11-14T02:32:28.483Z,9.77
2022-11-14T02:35:14.085Z,10.55
2022-11-14T02:37:54.363Z,9.63
2022-11-14T02:40:35.794Z,10.07
2022-11-14T02:43:17.006Z,10.00
2022-11-14T02:46:00.301Z,9.70
2022-11-14T02:48:45.556Z,10.07
2022-11-14T02:51:27.371Z,10.13
2022-11-14T02:54:08.908Z,9.65
2022-11-14T02:56:50.536Z,9.18
2022-11-14T02:59:31.939Z,9.77
2022-11-14T03:02:14.787Z,8.85
2022-11-14T03:04:56.167Z,9.43
2022-11-14T03:07:37.674Z,10.20
2022-11-14T03:10:19.112Z,9.48
2022-11-14T03:13:00.457Z,9.23
2022-11-14T03:15:41.872Z,9.10
2022-11-14T03:18:23.678Z,8.63
2022-11-14T03:21:12.037Z,9.27
2022-11-14T03:23:52.822Z,9.00
2022-11-14T03:26:34.060Z,9.60
2022-11-14T03:29:15.094Z,9.40
2022-11-14T03:31:56.320Z,9.70
2022-11-14T03:34:36.932Z,9.40
2022-11-14T03:37:18.376Z,8.77
2022-11-14T03:39:59.768Z,8.65
2022-11-14T03:42:41.105Z,9.07
2022-11-14T03:45:21.858Z,9.05
2022-11-14T03:48:03.511Z,8.95
2022-11-14T03:50:44.904Z,9.05
2022-11-14T03:53:26.420Z,8.68
2022-11-14T03:56:08.113Z,9.05
2022-11-14T03:58:48.630Z,8.77
2022-11-14T04:01:30.424Z,8.52
2022-11-14T04:04:12.881Z,9.65
2022-11-14T04:06:54.582Z,9.45
2022-11-14T04:09:35.993Z,9.02
2022-11-14T04:12:17.845Z,10.02
2022-11-14T04:14:59.233Z,8.98
2022-11-14T04:17:40.689Z,9.45
2022-11-14T04:20:21.954Z,9.80
2022-11-14T04:23:03.653Z,10.10
2022-11-14T04:25:45.391Z,10.15
2022-11-14T04:28:27.335Z,10.20
2022-11-14T04:31:08.974Z,9.98
2022-11-14T04:33:50.384Z,9.20
2022-11-14T04:36:31.625Z,9.32
2022-11-14T04:39:13.081Z,9.38
2022-11-14T04:41:53.348Z,9.10
2022-11-14T04:44:34.801Z,11.20
2022-11-14T04:47:16.068Z,10.65
2022-11-14T04:49:56.481Z,9.82
2022-11-14T04:52:37.831Z,9.43
2022-11-14T04:55:19.371Z,10.32
2022-11-14T04:58:00.672Z,10.32
2022-11-14T05:00:42.166Z,11.10
2022-11-14T05:03:22.373Z,11.32
2022-11-14T05:06:03.145Z,10.68
2022-11-14T05:08:44.449Z,10.60
2022-11-14T05:11:29.216Z,10.73
2022-11-14T05:14:10.710Z,11.40
2022-11-14T05:16:52.469Z,10.65
2022-11-14T05:19:33.940Z,11.55
2022-11-14T05:22:16.472Z,10.95
2022-11-14T05:24:57.707Z,10.68
2022-11-14T05:27:39.152Z,11.50
2022-11-14T05:30:19.526Z,10.60
2022-11-14T05:33:01.415Z,12.35
2022-11-14T05:35:41.985Z,12.07
2022-11-14T05:38:23.772Z,12.30
2022-11-14T05:41:08.534Z,11.30
2022-11-14T05:43:50.242Z,10.77
2022-11-14T05:46:31.521Z,10.70
2022-11-14T05:49:15.010Z,10.90
2022-11-14T05:51:59.216Z,10.43
2022-11-14T05:54:39.648Z,10.95
2022-11-14T05:57:20.992Z,11.43
2022-11-14T06:00:04.091Z,11.38
2022-11-14T06:02:46.470Z,11.20
2022-11-14T06:05:27.998Z,10.50
2022-11-14T06:08:10.279Z,11.00
2022-11-14T06:10:50.693Z,9.52
2022-11-14T06:13:32.248Z,9.82
2022-11-14T06:16:15.747Z,10.02
2022-11-14T06:18:57.427Z,9.93
2022-11-14T06:21:38.921Z,9.93
2022-11-14T06:24:20.501Z,10.23
2022-11-14T06:27:01.954Z,8.98
2022-11-14T06:29:43.426Z,9.63
2022-11-14T06:32:24.972Z,8.63
2022-11-14T06:35:08.379Z,9.20
2022-11-14T06:37:49.928Z,8.98
2022-11-14T06:40:31.182Z,9.40
2022-11-14T06:43:11.597Z,10.25
2022-11-14T06:45:56.056Z,10.55
2022-11-14T06:48:36.640Z,10.25
2022-11-14T06:51:18.383Z,10.43
2022-11-14T06:53:59.927Z,9.93
2022-11-14T06:56:41.168Z,10.90
2022-11-14T06:59:21.585Z,11.02
2022-11-14T07:02:03.030Z,10.15
2022-11-14T07:04:43.485Z,9.93
2022-11-14T07:07:24.842Z,10.48
2022-11-14T07:10:07.771Z,11.48
2022-11-14T07:12:49.048Z,10.13
2022-11-14T07:15:30.524Z,12.90
2022-11-14T07:18:11.771Z,11.07
2022-11-14T07:21:00.468Z,10.70
2022-11-14T07:23:41.830Z,11.93
2022-11-14T07:26:23.581Z,11.18
2022-11-14T07:29:04.777Z,12.25
2022-11-14T07:31:46.195Z,11.02
2022-11-14T07:34:26.454Z,11.45
2022-11-14T07:37:08.158Z,11.00
2022-11-14T07:39:49.492Z,10.93
2022-11-14T07:42:30.951Z,10.40
2022-11-14T07:45:12.387Z,10.00
2022-11-14T07:48:01.753Z,10.82
2022-11-14T07:50:44.303Z,11.20
2022-11-14T07:53:26.196Z,11.40
2022-11-14T07:56:09.704Z,11.07
2022-11-14T07:58:51.206Z,11.10
2022-11-14T08:01:31.600Z,11.32
2022-11-14T08:04:13.244Z,11.00
2022-11-14T08:06:54.652Z,10.90
2022-11-14T08:09:36.234Z,11.13
2022-11-14T08:12:16.531Z,10.95
2022-11-14T08:14:58.204Z,11.27
2022-11-14T08:17:39.789Z,11.20
2022-11-14T08:20:21.193Z,11.40
2022-11-14T08:23:03.937Z,11.23
2022-11-14T08:25:45.602Z,11.18
2022-11-14T08:28:27.337Z,11.07
2022-11-14T08:31:10.336Z,12.95
2022-11-14T08:33:52.306Z,11.70
2022-11-14T08:36:33.769Z,11.40
2022-11-14T08:39:15.081Z,11.50
2022-11-14T08:41:56.672Z,10.80
2022-11-14T08:44:37.922Z,11.85
2022-11-14T08:47:19.329Z,12.55
2022-11-14T08:50:00.554Z,11.05
2022-11-14T08:52:42.007Z,11.85
2022-11-14T08:55:23.288Z,11.65
2022-11-14T08:58:05.009Z,11.93
2022-11-14T09:00:46.355Z,12.00
2022-11-14T09:03:27.888Z,12.45
2022-11-14T09:06:10.369Z,12.27
2022-11-14T09:08:51.872Z,12.48
2022-11-14T09:11:33.440Z,12.07
2022-11-14T09:14:14.851Z,12.57
2022-11-14T09:16:56.337Z,12.07
2022-11-14T09:19:36.786Z,12.85
2022-11-14T09:22:18.179Z,12.30
2022-11-14T09:24:59.904Z,11.70
2022-11-14T09:27:41.144Z,13.00
2022-11-14T09:30:23.188Z,12.45
2022-11-14T09:33:11.476Z,12.20
2022-11-14T09:36:00.842Z,12.38
2022-11-14T09:38:44.340Z,13.05
2022-11-14T09:41:26.885Z,12.30
2022-11-14T09:44:26.222Z,12.85
2022-11-14T09:47:21.781Z,12.68
2022-11-14T09:50:06.942Z,12.40
2022-11-14T09:53:01.836Z,12.75
2022-11-14T09:55:44.148Z,12.40
2022-11-14T09:58:24.832Z,13.73
2022-11-14T10:01:09.770Z,14.30
2022-11-14T10:04:09.581Z,13.48
2022-11-14T10:07:13.321Z,14.57
2022-11-14T10:10:01.624Z,13.82
2022-11-14T10:13:12.133Z,13.77
2022-11-14T10:16:02.942Z,14.70
2022-11-14T10:19:04.498Z,13.25
2022-11-14T10:21:52.057Z,14.57
2022-11-14T10:24:50.309Z,14.02
2022-11-14T10:27:35.851Z,13.05
2022-11-14T10:30:18.696Z,14.07
2022-11-14T10:33:24.292Z,14.13
2022-11-14T10:36:21.978Z,14.75
2022-11-14T10:39:16.733Z,14.20
2022-11-14T10:42:07.172Z,13.80
2022-11-14T10:45:23.409Z,14.25
2022-11-14T10:48:10.701Z,14.13
2022-11-14T10:51:15.263Z,14.77
2022-11-14T10:54:01.218Z,14.20
2022-11-14T10:56:48.173Z,13.00
2022-11-14T10:59:29.481Z,14.80
2022-11-14T11:02:11.115Z,14.23
2022-11-14T11:04:51.474Z,13.82
2022-11-14T11:07:46.887Z,13.93
2022-11-14T11:10:45.285Z,14.55
2022-11-14T11:13:37.100Z,14.40
2022-11-14T11:16:20.252Z,14.68
2022-11-14T11:19:22.023Z,14.45
2022-11-14T11:22:03.258Z,13.48
2022-11-14T11:24:43.839Z,13.90
2022-11-14T11:27:27.342Z,14.88
2022-11-14T11:30:23.798Z,14.15
2022-11-14T11:33:21.908Z,13.15
2022-11-14T11:36:12.324Z,13.48
2022-11-14T11:38:53.758Z,14.18
2022-11-14T11:44:44.658Z,13.02
2022-11-14T11:47:26.183Z,13.70
2022-11-14T11:50:16.110Z,13.65
2022-11-14T11:53:13.734Z,13.77
2022-11-14T11:56:05.348Z,13.82
2022-11-14T11:58:51.760Z,13.90
2022-11-14T12:01:33.102Z,13.18
2022-11-14T12:04:13.718Z,13.52
2022-11-14T12:07:01.340Z,13.15
2022-11-14T12:10:09.421Z,12.40
2022-11-14T12:12:44.267Z,13.98
2022-11-14T12:15:37.788Z,12.93
2022-11-14T12:18:23.728Z,13.60
2022-11-14T12:21:08.090Z,13.45
2022-11-14T12:24:02.236Z,12.90
2022-11-14T12:26:57.723Z,13.15
2022-11-14T12:29:56.915Z,13.85
2022-11-14T12:33:04.482Z,13.88
2022-11-14T12:35:56.685Z,14.85
2022-11-14T12:38:47.042Z,14.68
2022-11-14T12:41:32.915Z,14.70
2022-11-14T12:44:33.356Z,14.10
2022-11-14T12:47:22.682Z,14.65
2022-11-14T12:52:49.168Z,13.25
2022-11-14T12:55:32.644Z,15.27
2022-11-14T12:58:23.545Z,14.20
2022-11-14T13:01:14.519Z,14.93
2022-11-14T13:04:13.616Z,15.02
2022-11-14T13:07:13.903Z,14.48
2022-11-14T13:09:59.786Z,16.10
2022-11-14T13:13:11.880Z,15.05
2022-11-14T13:16:10.702Z,16.00
2022-11-14T13:19:10.265Z,13.65
2022-11-14T13:22:11.530Z,14.75
2022-11-14T13:24:59.382Z,15.02
2022-11-14T13:28:05.900Z,16.35
2022-11-14T13:31:09.909Z,15.23
2022-11-14T13:34:01.575Z,16.83
2022-11-14T13:36:56.917Z,14.82
2022-11-14T13:40:06.142Z,15.05
2022-11-14T13:43:12.989Z,15.20
2022-11-14T13:46:00.325Z,14.65
2022-11-14T13:49:02.696Z,15.40
2022-11-14T13:51:44.439Z,14.85
2022-11-14T13:54:25.948Z,15.57
2022-11-14T13:57:18.447Z,15.27
2022-11-14T14:00:20.446Z,15.57
2022-11-14T14:03:20.364Z,15.30
2022-11-14T14:06:16.700Z,15.32
2022-11-14T14:09:26.990Z,16.25
2022-11-14T14:12:22.556Z,15.75
2022-11-14T14:15:12.294Z,16.60
2022-11-14T14:18:06.117Z,15.65
2022-11-14T14:20:55.678Z,15.20
2022-11-14T14:23:40.532Z,16.92
2022-11-14T14:26:35.800Z,15.65
2022-11-14T14:29:30.856Z,16.27
2022-11-14T14:32:17.296Z,16.13
2022-11-14T14:35:00.807Z,15.13
2022-11-14T14:37:50.659Z,16.55
2022-11-14T14:40:36.222Z,16.80
2022-11-14T14:43:44.956Z,15.10
2022-11-14T14:46:32.272Z,16.13
2022-11-14T14:49:23.378Z,16.42
2022-11-14T14:52:20.784Z,16.10
2022-11-14T14:55:06.622Z,16.30
2022-11-14T14:57:48.148Z,16.58
2022-11-14T15:00:29.645Z,17.25
2022-11-14T15:03:11.129Z,17.02
2022-11-14T15:06:06.606Z,17.30
2022-11-14T15:11:32.386Z,15.63
2022-11-14T15:14:16.768Z,17.67
2022-11-14T15:16:58.705Z,16.42
2022-11-14T15:19:45.137Z,16.45
2022-11-14T15:22:29.260Z,18.10
2022-11-14T15:25:13.845Z,17.45
2022-11-14T15:27:55.332Z,17.35
2022-11-14T15:30:37.184Z,18.08
2022-11-14T15:33:27.312Z,18.42
2022-11-14T15:36:18.013Z,18.55
2022-11-14T15:39:20.592Z,18.83
2022-11-14T15:42:29.038Z,20.75
2022-11-14T15:45:24.873Z,19.15
2022-11-14T15:48:18.155Z,26.80
2022-11-14T15:50:59.503Z,25.00
2022-11-14T15:53:49.042Z,35.08
2022-11-14T15:56:30.769Z,29.17
2022-11-14T15:59:12.666Z,45.70
2022-11-14T16:01:59.920Z,78.57
2022-11-14T16:04:47.076Z,47.58
2022-11-14T16:07:29.436Z,39.05
2022-11-14T16:10:25.900Z,39.20
2022-11-14T16:13:11.599Z,51.17
2022-11-14T16:15:53.269Z,54.50
2022-11-14T16:21:38.442Z,23.77
2022-11-14T16:24:22.119Z,23.55
2022-11-14T16:27:03.421Z,23.85
2022-11-14T16:29:44.909Z,23.15
2022-11-14T16:32:28.430Z,23.38
2022-11-14T16:35:13.815Z,23.42
2022-11-14T16:37:55.275Z,23.75
2022-11-14T16:40:37.295Z,25.00
2022-11-14T16:43:18.592Z,24.10
2022-11-14T16:46:04.825Z,23.80
2022-11-14T16:48:46.407Z,23.67
2022-11-14T16:54:29.502Z,24.30
2022-11-14T16:57:10.935Z,26.55
2022-11-14T16:59:53.226Z,26.08
2022-11-14T17:02:38.783Z,25.20
2022-11-14T17:05:45.615Z,26.63
2022-11-14T17:08:27.261Z,24.63
2022-11-14T17:11:10.001Z,24.83
2022-11-14T17:13:51.633Z,25.25
2022-11-14T17:16:32.958Z,26.65
2022-11-14T17:19:14.544Z,25.50
2022-11-14T17:21:56.035Z,23.05
2022-11-14T17:24:37.621Z,24.25
2022-11-14T17:27:18.941Z,24.05
2022-11-14T17:30:00.556Z,25.90
2022-11-14T17:32:42.061Z,23.70
2022-11-14T17:35:22.943Z,23.70
2022-11-14T17:38:04.228Z,23.73
2022-11-14T17:40:44.994Z,23.65
2022-11-14T17:43:27.693Z,22.77
2022-11-14T17:46:15.630Z,23.48
2022-11-14T17:48:58.767Z,23.45
2022-11-14T17:51:40.318Z,23.48
2022-11-14T17:54:21.823Z,23.20
2022-11-14T17:57:04.017Z,23.30
2022-11-14T17:59:45.630Z,23.08
2022-11-14T18:02:27.538Z,22.55
2022-11-14T18:05:08.987Z,22.98
2022-11-14T18:07:51.754Z,22.17
2022-11-14T18:10:33.276Z,24.13
2022-11-14T18:13:14.806Z,23.73
2022-11-14T18:16:22.925Z,23.38
2022-11-14T18:19:04.802Z,22.35
2022-11-14T18:21:52.041Z,23.27
2022-11-14T18:24:35.280Z,24.23
2022-11-14T18:27:16.855Z,23.92
2022-11-14T18:30:08.402Z,22.00
2022-11-14T18:33:01.999Z,23.15
2022-11-14T18:35:44.712Z,22.67
2022-11-14T18:38:17.224Z,23.80
2022-11-14T18:40:58.274Z,23.13
2022-11-14T18:43:39.993Z,22.80
2022-11-14T18:46:24.614Z,22.55
2022-11-14T18:49:06.399Z,22.40
2022-11-14T18:51:48.003Z,23.63
2022-11-14T18:54:32.520Z,22.98
2022-11-14T18:57:14.032Z,21.85
2022-11-14T18:59:55.344Z,23.08
2022-11-14T19:02:36.830Z,23.55
2022-11-14T19:05:18.246Z,22.65
2022-11-14T19:07:59.908Z,21.48
2022-11-14T19:10:42.322Z,21.77
2022-11-14T19:13:29.618Z,21.42
2022-11-14T19:16:11.090Z,20.92
2022-11-14T19:18:52.651Z,22.48
2022-11-14T19:21:35.780Z,21.92
2022-11-14T19:24:17.703Z,22.52
2022-11-14T19:26:59.198Z,21.92
2022-11-14T19:29:41.057Z,21.95
2022-11-14T19:32:21.541Z,22.67
2022-11-14T19:35:03.153Z,21.98
2022-11-14T19:37:43.610Z,20.70
2022-11-14T19:40:27.275Z,21.35
2022-11-14T19:43:10.801Z,22.58
2022-11-14T19:45:52.466Z,22.70
2022-11-14T19:48:34.355Z,21.08
2022-11-14T19:51:17.468Z,20.23
2022-11-14T19:53:59.535Z,22.30
2022-11-14T19:56:41.130Z,21.00
2022-11-14T19:59:24.473Z,20.25
2022-11-14T20:02:06.388Z,20.38
2022-11-14T20:04:47.825Z,20.17
2022-11-14T20:07:30.428Z,20.60
2022-11-14T20:10:11.906Z,20.83
2022-11-14T20:12:54.395Z,19.55
2022-11-14T20:15:36.017Z,19.88
2022-11-14T20:18:17.929Z,19.40
2022-11-14T20:21:06.629Z,20.42
2022-11-14T20:23:48.378Z,20.75
2022-11-14T20:26:29.681Z,19.13
2022-11-14T20:29:11.322Z,18.88
2022-11-14T20:31:52.650Z,19.13
2022-11-14T20:34:34.275Z,19.08
2022-11-14T20:37:15.749Z,18.92
2022-11-14T20:39:57.481Z,20.63
2022-11-14T20:42:38.864Z,19.35
2022-11-14T20:45:20.325Z,20.27
2022-11-14T20:48:01.820Z,19.48
2022-11-14T20:50:43.331Z,18.73
2022-11-14T20:53:23.539Z,19.58
2022-11-14T20:56:05.143Z,18.83
2022-11-14T20:58:46.726Z,17.88
2022-11-14T21:01:28.322Z,18.42
2022-11-14T21:04:10.340Z,19.13
2022-11-14T21:06:54.343Z,18.60
2022-11-14T21:09:35.881Z,18.55
2022-11-14T21:12:17.508Z,18.75
2022-11-14T21:14:58.956Z,18.45
2022-11-14T21:17:40.848Z,17.85
2022-11-14T21:20:22.201Z,17.63
2022-11-14T21:23:03.701Z,17.10
2022-11-14T21:25:45.018Z,17.10
2022-11-14T21:28:25.534Z,17.13
2022-11-14T21:31:32.898Z,17.85
2022-11-14T21:42:28.997Z,15.70
2022-11-14T21:42:55.184Z,16.23
2022-11-14T21:46:00.019Z,16.33
2022-11-14T21:48:43.523Z,16.50
2022-11-14T21:52:54.819Z,14.90
2022-11-14T22:04:12.590Z,15.30
2022-11-14T22:06:54.507Z,16.05
2022-11-14T22:14:11.659Z,16.88
2022-11-14T22:17:00.941Z,15.95
2022-11-14T22:20:09.193Z,15.05
2022-11-14T22:24:05.005Z,15.50
2022-11-14T22:31:31.503Z,15.10
2022-11-14T22:34:28.269Z,14.52
2022-11-14T22:37:12.441Z,16.10
2022-11-14T22:39:50.469Z,15.25
2022-11-14T22:42:42.210Z,15.07
2022-11-14T22:45:23.581Z,15.15
2022-11-14T22:48:05.103Z,15.93
2022-11-14T22:50:45.509Z,14.40
2022-11-14T22:53:28.631Z,14.85
2022-11-14T22:56:11.260Z,14.40
2022-11-14T22:58:52.702Z,14.70
2022-11-14T23:01:33.996Z,14.70
2022-11-14T23:04:14.583Z,14.70
2022-11-14T23:06:55.935Z,15.88
2022-11-14T23:09:37.379Z,14.20
2022-11-14T23:12:18.660Z,14.65
2022-11-14T23:15:00.290Z,13.40
2022-11-14T23:17:41.545Z,13.98
2022-11-14T23:20:23.023Z,14.40
2022-11-14T23:23:04.342Z,13.77
2022-11-14T23:25:45.732Z,14.65
2022-11-14T23:28:26.953Z,14.13
2022-11-14T23:31:07.837Z,14.15
2022-11-14T23:33:49.830Z,14.15
2022-11-14T23:36:31.452Z,14.45
2022-11-14T23:39:12.629Z,15.25
2022-11-14T23:41:54.002Z,14.77
2022-11-14T23:44:34.193Z,13.77
2022-11-14T23:47:14.651Z,13.70
2022-11-14T23:49:55.796Z,12.98
2022-11-14T23:52:37.185Z,13.65
2022-11-14T23:55:18.629Z,14.85
2022-11-14T23:58:00.412Z,14.25
